Flight Track Log - Related Links

Times and Time Zones

All times are in EDT time to prevent confusion due to time zone crossing. See the SAS4416 flight status page for this flight to view local times or setup timezone preferences in your user account.

Time Position Orientation Groundspeed Altitude Reporting Facility
EDT Latitude Longitude Course Direction KTS MPH feet Rate Location/Type
Mon 06:05:22 AM 60.1470 10.9030 16° North 263 303 5,100  Level FlightAware ADS-B
Mon 06:05:47 AM 60.1540 10.8450 284° West 261 300 6,500 3,067 Climbing FlightAware ADS-B
Mon 06:06:00 AM 60.5307 11.2933 16° North  Level Estimated
Mon 06:06:07 AM 60.1690 10.8080 309° West 272 313 7,400  Level FlightAware ADS-B
Mon 06:06:17 AM 60.1810 10.7980 337° Northwest 272 313 8,000 3,450 Climbing FlightAware ADS-B
Mon 06:06:47 AM 60.2170 10.8070 North 280 322 9,700 2,160 Climbing FlightAware ADS-B
Mon 06:07:32 AM 60.2700 10.8680 30° Northeast 327 376 10,700 1,765 Climbing FlightAware ADS-B
Mon 06:08:12 AM 60.3280 10.9340 29° Northeast 346 398 12,200 2,325 Climbing FlightAware ADS-B
Mon 06:08:52 AM 60.3840 11.0010 31° Northeast 357 411 13,800 2,259 Climbing FlightAware ADS-B
Mon 06:09:37 AM 60.4480 11.0780 31° Northeast 370 426 15,400 2,175 Climbing FlightAware ADS-B
Mon 06:10:12 AM 60.4970 11.1370 31° Northeast 379 436 16,700 2,354 Climbing FlightAware ADS-B
Mon 06:10:56 AM 60.5690 11.2230 30° Northeast 390 449 18,500 2,157 Climbing FlightAware ADS-B
Mon 06:11:41 AM 60.6210 11.2850 30° Northeast 397 457 19,900 2,442 Climbing FlightAware ADS-B
Mon 06:12:22 AM 60.7050 11.3850 30° Northeast 407 468 22,000 2,690 Climbing FlightAware ADS-B
Mon 06:13:08 AM 60.7860 11.4510 22° Northeast 413 475 23,800 2,400 Climbing FlightAware ADS-B
Mon 06:13:47 AM 60.8570 11.5060 21° North 422 486 25,400 2,274 Climbing FlightAware ADS-B
Mon 06:14:43 AM 60.9600 11.5850 20° North 432 497 27,400 2,040 Climbing FlightAware ADS-B
Mon 06:15:27 AM 61.0430 11.6480 20° North 441 507 28,800 1,835 Climbing FlightAware ADS-B
Mon 06:16:08 AM 61.1240 11.7070 19° North 449 517 30,000 1,902 Climbing FlightAware ADS-B
Mon 06:16:49 AM 61.2040 11.7570 17° North 444 511 31,400 1,976 Climbing FlightAware ADS-B
Mon 06:17:33 AM 61.2930 11.7680 North 439 505 32,800 1,786 Climbing FlightAware ADS-B
Mon 06:18:13 AM 61.3750 11.7690 360° North 443 510 33,900 1,425 Climbing FlightAware ADS-B
Mon 06:18:53 AM 61.4560 11.7710 North 448 516 34,700 1,358 Climbing FlightAware ADS-B
Mon 06:19:59 AM 61.5930 11.7740 North 449 517 36,300 1,278 Climbing FlightAware ADS-B
Mon 06:20:41 AM 61.6790 11.7760 North 451 519 37,000 412 Climbing FlightAware ADS-B
Mon 06:21:41 AM 61.8050 11.7780 360° North 452 520 37,000  Level FlightAware ADS-B
Mon 06:22:23 AM 61.8900 11.7790 360° North 451 519 37,000  Level FlightAware ADS-B
Mon 06:23:05 AM 61.9800 11.7800 360° North 451 519 37,000  Level FlightAware ADS-B
Mon 06:23:47 AM 62.0650 11.7820 North 451 519 37,000  Level FlightAware ADS-B
Mon 06:24:32 AM 62.1600 11.7840 North 452 520 37,000  Level FlightAware ADS-B
Mon 06:25:13 AM 62.2430 11.7860 North 452 520 37,000  Level FlightAware ADS-B
Mon 06:25:56 AM 62.3330 11.7870 360° North 453 521 37,000  Level FlightAware ADS-B
Mon 06:26:38 AM 62.4240 11.7880 360° North 456 525 37,000  Level FlightAware ADS-B
Mon 06:27:21 AM 62.5070 11.7900 North 457 526 37,000  Level FlightAware ADS-B
Mon 06:28:02 AM 62.6010 11.7910 360° North 459 528 37,000  Level FlightAware ADS-B
Mon 06:28:46 AM 62.6930 11.7930 North 456 525 37,000  Level FlightAware ADS-B
Mon 06:29:26 AM 62.7770 11.7940 360° North 454 522 37,000  Level FlightAware ADS-B
Mon 06:29:46 AM 62.8180 11.7950 North 454 522 37,000  Level FlightAware ADS-B
Mon 06:30:46 AM 62.9400 11.7980 North 453 521 37,000  Level FlightAware ADS-B
Mon 06:31:26 AM 63.0290 11.7990 360° North 452 520 37,000  Level FlightAware ADS-B
Mon 06:32:26 AM 63.1520 11.8010 360° North 452 520 37,000  Level FlightAware ADS-B
Mon 06:33:06 AM 63.2330 11.8030 North 453 521 37,000  Level FlightAware ADS-B
Mon 06:33:50 AM 63.3260 11.8070 North 456 525 37,000  Level FlightAware ADS-B
Mon 06:34:35 AM 63.4160 11.8590 14° North 462 532 37,000  Level FlightAware ADS-B
Mon 06:35:14 AM 63.4960 11.9240 20° North 462 532 37,000  Level FlightAware ADS-B
Mon 06:35:55 AM 63.5770 11.9890 20° North 462 532 37,000  Level FlightAware ADS-B
Mon 06:36:40 AM 63.6670 12.0640 20° North 462 532 37,000  Level FlightAware ADS-B
Mon 06:37:23 AM 63.7540 12.1360 20° North 463 533 37,000  Level FlightAware ADS-B
Mon 06:38:04 AM 63.8370 12.2050 20° North 462 532 37,000  Level FlightAware ADS-B
Mon 06:38:49 AM 63.9240 12.2760 20° North 461 531 37,000  Level FlightAware ADS-B
Mon 06:39:28 AM 64.0050 12.3440 20° North 461 531 37,000  Level FlightAware ADS-B
Mon 06:40:12 AM 64.0930 12.4190 20° North 462 532 37,000  Level FlightAware ADS-B
Mon 06:40:52 AM 64.1730 12.4870 20° North 462 532 37,000  Level FlightAware ADS-B
Mon 06:41:32 AM 64.2540 12.5570 21° North 462 532 37,000  Level FlightAware ADS-B
Mon 06:42:16 AM 64.3420 12.6330 20° North 462 532 37,000  Level FlightAware ADS-B
Mon 06:43:00 AM 64.4300 12.7090 20° North 462 532 37,000  Level FlightAware ADS-B
Mon 06:43:41 AM 64.5100 12.7780 20° North 463 533 37,000  Level FlightAware ADS-B
Mon 06:44:22 AM 64.5930 12.8520 21° North 463 533 37,000  Level FlightAware ADS-B
Mon 06:45:04 AM 64.6770 12.9260 21° North 462 532 37,000  Level FlightAware ADS-B
Mon 06:45:48 AM 64.7650 13.0040 21° North 463 533 37,000  Level FlightAware ADS-B
Mon 06:46:28 AM 64.8440 13.0750 21° North 462 532 37,000  Level FlightAware ADS-B
Mon 06:47:06 AM 64.9190 13.1430 21° North 463 533 37,000  Level FlightAware ADS-B
Mon 06:47:52 AM 65.0110 13.2270 21° North 461 531 37,000  Level FlightAware ADS-B
Mon 06:48:36 AM 65.0970 13.3050 21° North 465 535 37,000  Level FlightAware ADS-B
Mon 06:49:15 AM 65.1750 13.3770 21° North 468 539 37,000  Level FlightAware ADS-B
Mon 06:49:55 AM 65.2560 13.4530 21° North 471 542 37,000  Level FlightAware ADS-B
Mon 06:50:40 AM 65.3470 13.5390 22° Northeast 470 541 37,000  Level FlightAware ADS-B
Mon 06:51:25 AM 65.4380 13.6250 21° North 468 539 37,000  Level FlightAware ADS-B
Mon 06:52:05 AM 65.5180 13.7000 21° North 468 539 37,000  Level FlightAware ADS-B
Mon 06:52:46 AM 65.5990 13.7770 21° North 466 536 37,000  Level FlightAware ADS-B
Mon 06:53:26 AM 65.6790 13.8530 21° North 467 537 37,000  Level FlightAware ADS-B
Mon 06:54:11 AM 65.7690 13.9410 22° Northeast 468 539 37,000  Level FlightAware ADS-B
Mon 06:54:51 AM 65.8480 14.0260 24° Northeast 460 529 37,000  Level FlightAware ADS-B
Mon 06:55:36 AM 65.9370 14.1220 24° Northeast 461 531 37,000  Level FlightAware ADS-B
Mon 06:56:16 AM 66.0160 14.2090 24° Northeast 458 527 37,000  Level FlightAware ADS-B
Mon 06:56:56 AM 66.0940 14.2960 24° Northeast 458 527 37,000  Level FlightAware ADS-B
Mon 06:57:36 AM 66.1720 14.3830 24° Northeast 457 526 37,000  Level FlightAware ADS-B
Mon 06:58:17 AM 66.2520 14.4730 24° Northeast 463 533 37,000  Level FlightAware ADS-B
Mon 06:59:00 AM 66.3360 14.5680 24° Northeast 462 532 37,000  Level FlightAware ADS-B
Mon 06:59:43 AM 66.4190 14.6620 24° Northeast 463 533 37,000  Level FlightAware ADS-B
Mon 07:00:28 AM 66.5060 14.7620 25° Northeast 462 532 37,000  Level FlightAware ADS-B
Mon 07:01:08 AM 66.5840 14.8510 24° Northeast 463 533 37,000  Level FlightAware ADS-B
Mon 07:01:48 AM 66.6630 14.9440 25° Northeast 463 533 37,000  Level FlightAware ADS-B
Mon 07:02:44 AM 66.7700 15.0710 25° Northeast 464 534 37,000  Level FlightAware ADS-B
Mon 07:03:34 AM 66.8660 15.1840 25° Northeast 463 533 37,000  Level FlightAware ADS-B
Mon 07:04:14 AM 66.9450 15.2680 23° Northeast 454 522 37,000  Level FlightAware ADS-B
Mon 07:04:55 AM 67.0230 15.3460 21° North 452 520 37,000  Level FlightAware ADS-B
Mon 07:05:34 AM 67.1020 15.4270 22° Northeast 451 519 37,000  Level FlightAware ADS-B
Mon 07:06:14 AM 67.1790 15.5070 22° Northeast 452 520 37,000  Level FlightAware ADS-B
Mon 07:06:54 AM 67.2610 15.5920 22° Northeast 454 522 37,000  Level FlightAware ADS-B
Mon 07:07:29 AM 67.3280 15.6630 22° Northeast 455 524 37,000  Level FlightAware ADS-B
Mon 07:08:09 AM 67.4080 15.7460 22° Northeast 455 524 37,000  Level FlightAware ADS-B
Mon 07:08:49 AM 67.4870 15.8310 22° Northeast 454 522 37,000  Level FlightAware ADS-B
Mon 07:09:37 AM 67.5720 15.9220 22° Northeast 454 522 37,000  Level FlightAware ADS-B
Mon 07:10:17 AM 67.6580 16.0140 22° Northeast 454 522 37,000  Level FlightAware ADS-B
Mon 07:11:00 AM 67.7390 16.1020 22° Northeast 454 522 37,000  Level FlightAware ADS-B
Mon 07:11:35 AM 67.8050 16.1730 22° Northeast 455 524 37,000  Level FlightAware ADS-B
Mon 07:12:20 AM 67.9020 16.2800 23° Northeast 457 526 37,000  Level FlightAware ADS-B
Mon 07:13:00 AM 67.9820 16.3690 23° Northeast 458 527 37,000  Level FlightAware ADS-B
Mon 07:13:45 AM 68.0710 16.4680 23° Northeast 459 528 37,000  Level FlightAware ADS-B
Mon 07:14:27 AM 68.1500 16.5580 23° Northeast 467 537 37,000  Level FlightAware ADS-B
Mon 07:15:11 AM 68.2380 16.6570 23° Northeast 468 539 37,000  Level FlightAware ADS-B
Mon 07:15:50 AM 68.3200 16.7510 23° Northeast 469 540 37,000  Level FlightAware ADS-B
Mon 07:16:35 AM 68.4090 16.8540 23° Northeast 469 540 37,000 -71 Level FlightAware ADS-B
Mon 07:17:15 AM 68.4860 16.9440 23° Northeast 454 522 36,900 -776 Descending FlightAware ADS-B
Mon 07:18:00 AM 68.5720 17.0460 23° Northeast 437 503 35,900 -2,329 Descending FlightAware ADS-B
Mon 07:18:40 AM 68.6480 17.1350 23° Northeast 453 521 33,600 -3,671 Descending FlightAware ADS-B
Mon 07:19:25 AM 68.7360 17.2390 23° Northeast 469 540 30,700 -3,318 Descending FlightAware ADS-B
Mon 07:20:05 AM 68.8130 17.3330 24° Northeast 454 522 28,900 -2,700 Descending FlightAware ADS-B
Mon 07:20:45 AM 68.8920 17.4280 23° Northeast 444 511 27,100 -2,471 Descending FlightAware ADS-B
Mon 07:21:30 AM 68.9750 17.5290 24° Northeast 435 501 25,400 -2,259 Descending FlightAware ADS-B
Mon 07:22:10 AM 69.0470 17.6180 24° Northeast 422 486 23,900 -2,259 Descending FlightAware ADS-B
Mon 07:22:55 AM 69.1270 17.7170 24° Northeast 404 465 22,200 -2,188 Descending FlightAware ADS-B
Mon 07:23:35 AM 69.1950 17.8020 24° Northeast 401 461 20,800 -2,175 Descending FlightAware ADS-B
Mon 07:24:15 AM 69.2610 17.8860 24° Northeast 392 451 19,300 -2,250 Descending FlightAware ADS-B
Mon 07:24:55 AM 69.3260 17.9680 24° Northeast 388 447 17,800 -2,259 Descending FlightAware ADS-B
Mon 07:25:40 AM 69.4010 18.0590 23° Northeast 380 437 16,100 -2,047 Descending FlightAware ADS-B
Mon 07:26:20 AM 69.4650 18.1260 20° North 369 425 14,900 -1,906 Descending FlightAware ADS-B
Mon 07:27:05 AM 69.5360 18.1990 20° North 361 415 13,400 -1,976 Descending FlightAware ADS-B
Mon 07:27:45 AM 69.5970 18.2630 20° North 354 407 12,100 -1,976 Descending FlightAware ADS-B
Mon 07:28:30 AM 69.6660 18.3350 20° North 346 398 10,600 -1,482 Descending FlightAware ADS-B
Mon 07:29:10 AM 69.7240 18.3960 20° North 316 364 10,000 -764 Descending FlightAware ADS-B
Mon 07:29:25 AM 69.7410 18.4150 21° North 307 353 9,900 -750 Descending FlightAware ADS-B
Mon 07:29:50 AM 69.7760 18.4520 20° North 293 337 9,500 -1,091 Descending FlightAware ADS-B
Mon 07:30:20 AM 69.8130 18.4920 20° North 289 333 8,900 -1,418 Descending FlightAware ADS-B
Mon 07:30:45 AM 69.8430 18.5330 25° Northeast 289 333 8,200 -1,467 Descending FlightAware ADS-B
Mon 07:31:05 AM 69.8640 18.5810 38° Northeast 286 329 7,800 -1,143 Descending FlightAware ADS-B
Mon 07:31:27 AM 69.8770 18.6290 52° Northeast 285 328 7,400 -1,222 Descending FlightAware ADS-B
Mon 07:31:59 AM 69.8970 18.7260 59° Northeast 281 323 6,700 -1,333 Descending FlightAware ADS-B
Mon 07:32:30 AM 69.9130 18.8580 71° East 259 298 6,000 -845 Descending FlightAware ADS-B
Mon 07:33:10 AM 69.8970 18.9650 113° Southeast 221 254 5,700 -646 Descending FlightAware ADS-B
Mon 07:33:35 AM 69.8760 19.0050 147° Southeast 202 232 5,300 -900 Descending FlightAware ADS-B
Mon 07:33:50 AM 69.8650 19.0260 147° Southeast 199 229 5,100 -1,440 Descending FlightAware ADS-B
Mon 07:34:00 AM 69.8550 19.0290 174° South 206 237 4,700 -1,800 Descending FlightAware ADS-B
Mon 07:34:30 AM 69.8270 19.0170 188° South 203 234 3,900 -1,500 Descending FlightAware ADS-B
Mon 07:35:00 AM 69.8020 18.9980 195° South 183 211 3,200 -1,467 Descending FlightAware ADS-B
Mon 07:35:15 AM 69.7900 18.9900 193° South 178 205 2,800 -1,333 Descending FlightAware ADS-B
Mon 07:35:45 AM 69.7670 18.9740 194° South 165 190 2,200 -1,200 Descending FlightAware ADS-B
Mon 07:36:10 AM 69.7480 18.9620 192° South 156 180 1,700 -1,091 Descending FlightAware ADS-B
Mon 07:36:40 AM 69.7290 18.9490 193° South 138 159 1,200 -1,067 Descending FlightAware ADS-B
Mon 07:36:55 AM 69.7200 18.9440 191° South 135 155 900 -1,050 Descending FlightAware ADS-B
Mon 07:37:20 AM 69.7050 18.9340 193° South 130 150 500 -873 Descending FlightAware ADS-B
Mon 07:37:50 AM 69.6870 18.9220 193° South 122 140 100 -800 Descending FlightAware ADS-B
Mon 07:38:16 AM 69.6810 18.9170 196° South 17 20 -231 Descending FlightAware ADS-B
Mon 07:38:45 AM 69.6800 18.9130 234° Southwest 119 137  Level FlightAware ADS-B
Mon 07:39:58 AM 69.6690 18.9020 199° South 119 137  Level FlightAware ADS-B

Login

Don't have an account? Register now (free) for customized features, flight alerts, and more!